Time;durP1;ratioP1;P1;durP2;ratioP2;P2;SDS_P1;SDS_P2;PMS_P1;PMS_P2;Temp;Humidity;BMP_temperature;BMP_pressure;BME280_temperature;BME280_humidity;BME280_pressure;Samples;Min_cycle;Max_cycle;Signal;HPM_P1;HPM_P2
2023/11/25 00:01:19;;;;;;;13.45;2.88;;;;;;;6.19;100.00;101250.72;5290453;28;20028;-75
2023/11/25 00:03:51;;;;;;;14.98;2.50;;;;;;;6.19;100.00;101264.56;5293992;28;20470;-75
2023/11/25 00:06:23;;;;;;;12.50;2.92;;;;;;;6.20;100.00;101258.41;5292785;28;20028;-75
2023/11/25 00:08:55;;;;;;;11.60;2.55;;;;;;;6.21;100.00;101259.25;5292552;28;20030;-74
2023/11/25 00:11:27;;;;;;;18.25;3.30;;;;;;;6.23;100.00;101262.63;5295366;28;20125;-75
2023/11/25 00:13:59;;;;;;;12.85;2.70;;;;;;;6.21;100.00;101248.84;5292926;28;20036;-75
2023/11/25 00:16:30;;;;;;;9.90;2.60;;;;;;;6.22;100.00;101258.34;5294339;28;20043;-75
2023/11/25 00:19:05;;;;;;;10.88;3.00;;;;;;;6.27;100.00;101256.28;5292819;28;20099;-75
2023/11/25 00:21:37;;;;;;;14.50;3.05;;;;;;;6.28;100.00;101258.78;5294282;28;20390;-75
2023/11/25 00:24:09;;;;;;;15.43;3.47;;;;;;;6.25;100.00;101256.41;5292019;28;20032;-74
2023/11/25 00:26:42;;;;;;;12.45;3.00;;;;;;;6.21;100.00;101246.25;5296257;28;20024;-74
2023/11/25 00:29:15;;;;;;;10.82;2.70;;;;;;;6.14;100.00;101251.00;5293950;28;20046;-75
2023/11/25 00:31:49;;;;;;;12.70;2.53;;;;;;;6.13;100.00;101248.47;5292682;28;20482;-75
2023/11/25 00:34:22;;;;;;;;;;;;;;;6.81;100.00;101236.44;5294822;28;20040;-75
2023/11/25 00:36:53;;;;;;;8.95;3.15;;;;;;;6.14;100.00;101243.19;5293224;28;19919;-75
2023/11/25 00:39:27;;;;;;;13.65;3.88;;;;;;;5.97;100.00;101235.56;5293522;28;20482;-75
2023/11/25 00:41:59;;;;;;;;;;;;;;;6.62;100.00;101229.88;5294549;28;20055;-75
2023/11/25 00:44:31;;;;;;;11.45;2.42;;;;;;;5.90;100.00;101229.84;5293010;28;19920;-75
2023/11/25 00:47:05;;;;;;;11.20;2.53;;;;;;;5.92;100.00;101241.03;5294984;28;20035;-75
2023/11/25 00:49:38;;;;;;;12.20;2.70;;;;;;;5.92;100.00;101246.22;5287826;28;20401;-75
2023/11/25 00:52:10;;;;;;;;;;;;;;;6.56;100.00;101236.31;5295313;28;20031;-75
2023/11/25 00:54:41;;;;;;;8.70;2.38;;;;;;;5.99;100.00;101237.16;5292793;28;19920;-75
2023/11/25 00:57:13;;;;;;;14.70;2.80;;;;;;;5.96;100.00;101244.28;5293567;28;20466;-75
2023/11/25 00:59:45;;;;;;;21.05;3.15;;;;;;;5.92;100.00;101234.97;5290191;28;20479;-75
2023/11/25 01:02:17;;;;;;;12.18;2.80;;;;;;;5.93;100.00;101229.69;5295121;28;20508;-75
2023/11/25 01:04:49;;;;;;;8.90;2.05;;;;;;;5.93;100.00;101232.28;5293532;28;20028;-75
2023/11/25 01:07:21;;;;;;;9.70;2.63;;;;;;;5.89;100.00;101238.56;5292254;28;20039;-75
2023/11/25 01:09:53;;;;;;;13.20;4.05;;;;;;;5.86;100.00;101236.97;5274972;28;20041;-75
2023/11/25 01:12:25;;;;;;;7.50;2.10;;;;;;;5.89;100.00;101248.13;5292212;28;20032;-75
2023/11/25 01:14:57;;;;;;;12.68;2.50;;;;;;;5.87;100.00;101248.22;5292460;28;20384;-75
2023/11/25 01:17:29;;;;;;;11.95;3.03;;;;;;;5.92;100.00;101248.84;5294076;28;20435;-75
2023/11/25 01:20:03;;;;;;;11.50;2.67;;;;;;;5.89;100.00;101259.38;5294302;28;20028;-75
2023/11/25 01:22:35;;;;;;;13.60;2.67;;;;;;;5.88;100.00;101255.09;5293649;28;20287;-75
2023/11/25 01:25:07;;;;;;;9.68;2.22;;;;;;;5.90;100.00;101253.25;5291823;28;20024;-75
2023/11/25 01:27:39;;;;;;;14.10;2.70;;;;;;;5.94;100.00;101259.13;5298315;28;20020;-75
2023/11/25 01:30:12;;;;;;;11.27;2.50;;;;;;;5.88;100.00;101255.09;5297248;28;20122;-75
2023/11/25 01:32:43;;;;;;;12.55;2.25;;;;;;;5.90;100.00;101261.03;5298352;28;20398;-75
2023/11/25 01:35:15;;;;;;;10.60;3.47;;;;;;;5.87;100.00;101261.22;5295164;28;20042;-75
2023/11/25 01:37:47;;;;;;;10.88;2.53;;;;;;;5.87;100.00;101263.81;5297315;28;20103;-75
2023/11/25 01:40:20;;;;;;;13.95;2.30;;;;;;;5.87;100.00;101263.81;5297039;28;20054;-75
2023/11/25 01:42:56;;;;;;;;;;;;;;;6.51;100.00;101254.78;5295033;28;20135;-75
2023/11/25 01:45:28;;;;;;;9.27;1.88;;;;;;;5.97;100.00;101253.75;5278655;28;19915;-75
2023/11/25 01:48:02;;;;;;;10.73;2.40;;;;;;;5.96;100.00;101268.53;5295096;28;20074;-75
2023/11/25 01:50:36;;;;;;;12.77;2.72;;;;;;;5.88;100.00;101262.91;5297182;28;20027;-75
2023/11/25 01:53:10;;;;;;;8.32;2.95;;;;;;;5.89;100.00;101250.75;5295241;28;20059;-75
2023/11/25 01:55:43;;;;;;;8.68;2.53;;;;;;;5.95;100.00;101261.66;5296134;28;20433;-75
2023/11/25 01:58:17;;;;;;;9.38;1.73;;;;;;;5.93;100.00;101270.47;5294681;28;20051;-75
2023/11/25 02:00:49;;;;;;;7.47;2.40;;;;;;;5.92;100.00;101259.22;5296763;28;20358;-75
2023/11/25 02:03:22;;;;;;;11.98;2.05;;;;;;;5.94;100.00;101254.75;5296173;28;20107;-75
2023/11/25 02:05:54;;;;;;;8.93;2.28;;;;;;;5.92;100.00;101261.84;5297127;28;20020;-75
2023/11/25 02:08:26;;;;;;;7.32;2.08;;;;;;;5.89;100.00;101261.97;5296242;28;20492;-75
2023/11/25 02:11:00;;;;;;;7.95;2.22;;;;;;;5.87;100.00;101248.22;5297681;28;20035;-75
2023/11/25 02:13:32;;;;;;;9.65;2.10;;;;;;;5.86;100.00;101257.78;5295506;28;20047;-75
2023/11/25 02:16:04;;;;;;;7.60;1.95;;;;;;;5.82;100.00;101251.09;5278483;28;20139;-75
2023/11/25 02:18:37;;;;;;;9.43;2.25;;;;;;;5.89;100.00;101259.38;5295084;28;20481;-75
2023/11/25 02:21:10;;;;;;;8.68;2.00;;;;;;;5.80;100.00;101247.75;5297385;28;20040;-75
2023/11/25 02:23:42;;;;;;;10.63;2.20;;;;;;;5.82;100.00;101252.84;5297770;28;20020;-75
2023/11/25 02:26:14;;;;;;;7.40;2.10;;;;;;;5.73;100.00;101261.19;5294903;28;20024;-75
2023/11/25 02:28:45;;;;;;;9.30;2.15;;;;;;;5.59;100.00;101262.81;5295254;28;20034;-75
2023/11/25 02:31:17;;;;;;;10.30;2.50;;;;;;;5.52;100.00;101258.88;5295663;28;20035;-75
2023/11/25 02:33:49;;;;;;;8.73;1.80;;;;;;;5.51;100.00;101253.78;5293954;28;20036;-75
2023/11/25 02:36:23;;;;;;;9.43;2.15;;;;;;;5.43;100.00;101256.81;5296476;28;20099;-75
2023/11/25 02:38:55;;;;;;;8.55;2.08;;;;;;;5.34;100.00;101257.31;5295169;28;20027;-77
2023/11/25 02:41:27;;;;;;;8.50;2.08;;;;;;;5.29;100.00;101260.19;5296464;28;20111;-75
2023/11/25 02:43:59;;;;;;;9.70;2.60;;;;;;;5.22;100.00;101263.22;5294480;28;20397;-75
2023/11/25 02:46:31;;;;;;;8.38;1.77;;;;;;;5.23;100.00;101267.50;5294793;28;20038;-75
2023/11/25 02:49:02;;;;;;;11.63;2.08;;;;;;;5.22;100.00;101271.00;5295307;28;20050;-75
2023/11/25 02:51:34;;;;;;;11.48;2.35;;;;;;;5.15;100.00;101270.50;5294642;28;20031;-75
2023/11/25 02:54:06;;;;;;;8.48;1.88;;;;;;;5.10;100.00;101264.75;5294658;28;20040;-75
2023/11/25 02:56:38;;;;;;;7.50;2.17;;;;;;;5.07;100.00;101267.50;5295303;28;20481;-75
2023/11/25 02:59:11;;;;;;;9.90;2.20;;;;;;;5.02;100.00;101264.31;5292971;28;20425;-75
2023/11/25 03:01:48;;;;;;;11.52;1.80;;;;;;;5.01;100.00;101268.69;5295054;28;20024;-75
2023/11/25 03:04:21;;;;;;;9.50;2.25;;;;;;;4.92;100.00;101266.56;5295600;28;20024;-75
2023/11/25 03:06:52;;;;;;;9.40;1.98;;;;;;;4.94;100.00;101269.94;5295921;28;20039;-75
2023/11/25 03:09:25;;;;;;;7.18;1.92;;;;;;;4.86;100.00;101265.16;5294541;28;20035;-75
2023/11/25 03:11:58;;;;;;;8.55;2.22;;;;;;;4.89;100.00;101261.56;5285258;28;20032;-74
2023/11/25 03:14:31;;;;;;;8.43;1.73;;;;;;;4.89;100.00;101271.97;5289778;28;20040;-74
2023/11/25 03:17:03;;;;;;;11.82;2.00;;;;;;;4.89;100.00;101264.16;5275119;28;20496;-75
2023/11/25 03:19:35;;;;;;;8.20;2.10;;;;;;;4.85;100.00;101275.63;5293138;28;20023;-75
2023/11/25 03:22:07;;;;;;;19.60;2.80;;;;;;;4.83;100.00;101267.91;5294721;28;20047;-75
2023/11/25 03:24:39;;;;;;;12.40;2.55;;;;;;;4.83;100.00;101267.09;5293792;28;20036;-74
2023/11/25 03:27:13;;;;;;;12.57;2.90;;;;;;;4.83;100.00;101259.28;5295545;28;20024;-75
2023/11/25 03:29:45;;;;;;;12.48;2.88;;;;;;;4.84;100.00;101266.16;5288824;28;20028;-75
2023/11/25 03:32:17;;;;;;;11.85;2.53;;;;;;;4.83;100.00;101260.13;5295931;28;20399;-75
2023/11/25 03:34:49;;;;;;;7.07;2.15;;;;;;;4.76;100.00;101243.22;5294408;28;20035;-74
2023/11/25 03:37:21;;;;;;;10.40;1.92;;;;;;;4.83;100.00;101265.31;5293264;28;20403;-75
2023/11/25 03:39:52;;;;;;;8.65;2.38;;;;;;;4.82;100.00;101258.47;5293248;28;20028;-75
2023/11/25 03:42:25;;;;;;;9.20;1.98;;;;;;;4.83;100.00;101261.91;5295968;28;20131;-75
2023/11/25 03:44:58;;;;;;;10.57;2.72;;;;;;;4.81;100.00;101259.41;5293745;28;20024;-75
2023/11/25 03:47:30;;;;;;;11.70;2.15;;;;;;;4.82;100.00;101255.03;5294078;28;20327;-74
2023/11/25 03:50:03;;;;;;;11.23;2.17;;;;;;;4.83;100.00;101249.75;5292594;28;20112;-74
2023/11/25 03:52:35;;;;;;;12.07;2.72;;;;;;;4.85;100.00;101260.06;5297230;28;20032;-74
2023/11/25 03:55:09;;;;;;;10.20;2.28;;;;;;;4.85;100.00;101258.31;5292715;28;20031;-74
2023/11/25 03:57:43;;;;;;;13.70;2.90;;;;;;;4.88;100.00;101263.31;5294359;28;20027;-74
2023/11/25 04:00:15;;;;;;;12.05;2.80;;;;;;;4.97;100.00;101256.78;5293570;28;20032;-74
2023/11/25 04:02:48;;;;;;;12.00;2.25;;;;;;;5.03;100.00;101253.00;5276625;28;20406;-74
2023/11/25 04:05:20;;;;;;;8.38;2.03;;;;;;;5.09;100.00;101255.28;5292072;28;20493;-74
2023/11/25 04:07:52;;;;;;;23.27;2.70;;;;;;;5.09;100.00;101256.13;5294507;28;20028;-74
2023/11/25 04:10:26;;;;;;;10.60;2.37;;;;;;;5.19;100.00;101260.78;5295316;28;20036;-74
2023/11/25 04:12:58;;;;;;;11.23;3.28;;;;;;;5.19;100.00;101255.59;5292427;28;20759;-74
2023/11/25 04:15:30;;;;;;;10.80;2.90;;;;;;;5.15;100.00;101244.53;5294140;28;20034;-75
2023/11/25 04:18:02;;;;;;;10.50;1.90;;;;;;;5.17;100.00;101260.88;5295037;28;20034;-75
2023/11/25 04:20:34;;;;;;;10.00;2.10;;;;;;;5.15;100.00;101248.88;5291827;28;20028;-75
2023/11/25 04:23:06;;;;;;;10.55;3.03;;;;;;;5.10;100.00;101247.38;5291629;28;20516;-75
2023/11/25 04:25:38;;;;;;;6.60;1.73;;;;;;;5.12;100.00;101249.94;5294815;28;20402;-75
2023/11/25 04:28:13;;;;;;;10.68;2.15;;;;;;;5.17;100.00;101250.50;5295208;28;20028;-74
2023/11/25 04:30:44;;;;;;;14.48;2.97;;;;;;;5.11;100.00;101259.47;5292196;28;20031;-75
2023/11/25 04:33:16;;;;;;;16.30;2.38;;;;;;;5.09;100.00;101252.69;5292354;28;20498;-75
2023/11/25 04:35:48;;;;;;;10.27;2.58;;;;;;;5.05;100.00;101257.22;5293192;28;20111;-74
2023/11/25 04:38:26;;;;;;;10.02;2.40;;;;;;;5.21;100.00;101252.00;5292017;28;20050;-75
2023/11/25 04:40:58;;;;;;;11.43;2.75;;;;;;;5.07;100.00;101259.72;5293854;28;20086;-75
2023/11/25 04:43:30;;;;;;;6.93;1.92;;;;;;;5.08;100.00;101254.44;5294862;28;20028;-75
2023/11/25 04:46:04;;;;;;;7.57;2.10;;;;;;;5.05;100.00;101257.22;5293631;28;20023;-75
2023/11/25 04:48:36;;;;;;;12.43;2.83;;;;;;;5.08;100.00;101267.44;5290425;28;20601;-75
2023/11/25 04:51:09;;;;;;;11.82;2.75;;;;;;;5.08;100.00;101258.81;5293313;28;20032;-75
2023/11/25 04:53:41;;;;;;;6.50;2.30;;;;;;;5.15;100.00;101259.28;5292166;28;20036;-75
2023/11/25 04:56:12;;;;;;;10.63;2.80;;;;;;;5.11;100.00;101256.00;5291834;28;20032;-74
2023/11/25 04:58:45;;;;;;;13.48;3.05;;;;;;;5.12;100.00;101253.34;5294642;28;20020;-75
2023/11/25 05:01:17;;;;;;;13.95;3.10;;;;;;;5.18;100.00;101264.31;5295695;28;20047;-75
2023/11/25 05:03:49;;;;;;;7.18;2.30;;;;;;;5.28;100.00;101276.72;5297077;28;20359;-75
2023/11/25 05:06:21;;;;;;;11.75;3.00;;;;;;;5.29;100.00;101306.13;5294470;28;20061;-75
2023/11/25 05:08:52;;;;;;;13.75;2.63;;;;;;;5.12;100.00;101291.47;5297390;28;20038;-75
2023/11/25 05:11:26;;;;;;;13.63;2.42;;;;;;;5.35;100.00;101323.97;5297107;28;20034;-75
2023/11/25 05:13:58;;;;;;;;;;;;;;;5.92;100.00;101316.44;5275587;28;20036;-75
2023/11/25 05:16:30;;;;;;;8.80;1.98;;;;;;;5.50;100.00;101315.34;5298363;28;20011;-75
2023/11/25 05:19:03;;;;;;;13.63;2.55;;;;;;;5.42;100.00;101299.34;5299857;28;20140;-75
2023/11/25 05:21:34;;;;;;;10.68;2.50;;;;;;;5.57;100.00;101293.28;5278402;28;21293;-75
2023/11/25 05:24:06;;;;;;;13.68;2.70;;;;;;;5.58;100.00;101294.94;5293957;28;20024;-75
2023/11/25 05:26:38;;;;;;;10.40;2.55;;;;;;;5.56;100.00;101283.78;5296013;28;20068;-75
2023/11/25 05:29:10;;;;;;;13.40;2.72;;;;;;;5.63;100.00;101291.25;5295934;28;20027;-75
2023/11/25 05:31:42;;;;;;;11.15;2.28;;;;;;;5.66;100.00;101288.47;5295756;28;20031;-75
2023/11/25 05:34:14;;;;;;;8.93;2.13;;;;;;;5.70;100.00;101284.78;5297882;28;20037;-75
2023/11/25 05:36:46;;;;;;;11.77;2.60;;;;;;;5.70;100.00;101279.56;5297898;28;20046;-75
2023/11/25 05:39:20;;;;;;;12.17;2.43;;;;;;;5.75;100.00;101275.75;5293814;28;20029;-75
2023/11/25 05:41:52;;;;;;;11.75;2.42;;;;;;;5.72;100.00;101260.38;5298330;28;20388;-75
2023/11/25 05:44:25;;;;;;;9.55;2.60;;;;;;;5.72;100.00;101268.16;5297133;28;20036;-75
2023/11/25 05:46:57;;;;;;;10.63;2.35;;;;;;;5.81;100.00;101301.41;5296654;28;20393;-75
2023/11/25 05:49:29;;;;;;;10.52;2.58;;;;;;;5.78;100.00;101288.59;5277988;28;20044;-75
2023/11/25 05:52:01;;;;;;;13.55;2.50;;;;;;;5.78;100.00;101285.16;5297612;28;20028;-75
2023/11/25 05:54:32;;;;;;;16.33;3.33;;;;;;;5.73;100.00;101262.03;5295391;28;20468;-75
2023/11/25 05:57:04;;;;;;;13.07;2.88;;;;;;;5.70;100.00;101261.38;5278079;28;20436;-75
2023/11/25 05:59:37;;;;;;;11.68;2.70;;;;;;;5.64;100.00;101233.94;5295389;28;20036;-75
2023/11/25 06:02:09;;;;;;;11.07;3.08;;;;;;;5.61;100.00;101241.94;5296510;28;20028;-74
2023/11/25 06:04:40;;;;;;;11.55;2.72;;;;;;;5.61;100.00;101242.78;5278920;28;20036;-75
2023/11/25 06:07:14;;;;;;;8.85;2.22;;;;;;;5.63;100.00;101244.44;5295678;28;20020;-75
2023/11/25 06:09:46;;;;;;;12.48;3.58;;;;;;;5.60;100.00;101242.84;5297328;28;20028;-75
2023/11/25 06:12:18;;;;;;;9.45;2.22;;;;;;;5.59;100.00;101239.44;5293878;28;20050;-75
2023/11/25 06:14:51;;;;;;;14.27;3.08;;;;;;;5.57;100.00;101246.50;5297504;28;20039;-75
2023/11/25 06:17:24;;;;;;;10.48;2.72;;;;;;;5.50;100.00;101234.78;5292483;28;20031;-75
2023/11/25 06:19:55;;;;;;;12.23;3.05;;;;;;;5.47;100.00;101240.13;5295907;28;20050;-75
2023/11/25 06:22:27;;;;;;;10.55;2.55;;;;;;;5.44;100.00;101245.50;5296441;28;20046;-75
2023/11/25 06:25:00;;;;;;;12.50;2.65;;;;;;;5.40;100.00;101231.00;5295388;28;20029;-75
2023/11/25 06:27:32;;;;;;;13.18;3.00;;;;;;;5.45;100.00;101223.78;5295479;28;20469;-75
2023/11/25 06:30:04;;;;;;;11.75;2.70;;;;;;;5.41;100.00;101224.06;5295566;28;20042;-75
2023/11/25 06:32:37;;;;;;;11.45;2.28;;;;;;;5.47;100.00;101224.53;5295188;28;20031;-75
2023/11/25 06:35:09;;;;;;;12.27;2.20;;;;;;;5.50;100.00;101236.53;5296506;28;20028;-75
2023/11/25 06:37:41;;;;;;;9.17;2.07;;;;;;;5.53;100.00;101247.59;5296027;28;20367;-75
2023/11/25 06:40:13;;;;;;;11.48;2.15;;;;;;;5.50;100.00;101260.75;5295848;28;20034;-75
2023/11/25 06:42:45;;;;;;;9.27;2.08;;;;;;;5.55;100.00;101247.50;5294270;28;20032;-75
2023/11/25 06:45:17;;;;;;;10.32;2.05;;;;;;;5.57;100.00;101243.91;5293334;28;20111;-75
2023/11/25 06:47:50;;;;;;;11.32;2.30;;;;;;;5.57;100.00;101236.09;5292202;28;20046;-75
2023/11/25 06:50:22;;;;;;;13.10;2.15;;;;;;;5.69;100.00;101231.13;5296437;28;20483;-75
2023/11/25 06:52:54;;;;;;;9.57;2.63;;;;;;;5.63;100.00;101234.06;5295406;28;20414;-75
2023/11/25 06:55:26;;;;;;;8.93;2.20;;;;;;;5.68;100.00;101240.66;5295836;28;20043;-75
2023/11/25 06:57:58;;;;;;;11.15;2.17;;;;;;;5.69;100.00;101246.72;5294924;28;20035;-75
2023/11/25 07:00:30;;;;;;;6.53;1.60;;;;;;;5.70;100.00;101251.81;5294404;28;20028;-75
2023/11/25 07:03:01;;;;;;;11.48;2.10;;;;;;;5.64;100.00;101228.75;5274424;28;20563;-75
2023/11/25 07:05:34;;;;;;;6.78;1.70;;;;;;;5.74;100.00;101237.69;5271520;28;20595;-75
2023/11/25 07:08:06;;;;;;;9.27;1.92;;;;;;;5.78;100.00;101234.00;5295123;28;20039;-75
2023/11/25 07:10:38;;;;;;;7.13;1.67;;;;;;;5.79;100.00;101233.06;5293780;28;20024;-75
2023/11/25 07:13:10;;;;;;;7.43;1.42;;;;;;;5.76;100.00;101219.44;5292355;28;20068;-75
2023/11/25 07:15:41;;;;;;;8.68;1.95;;;;;;;5.83;100.00;101225.91;5293534;28;20062;-75
2023/11/25 07:18:14;;;;;;;6.60;1.40;;;;;;;5.90;100.00;101224.63;5294048;28;20040;-75
2023/11/25 07:20:46;;;;;;;8.15;1.88;;;;;;;5.87;100.00;101211.81;5293777;28;20028;-75
2023/11/25 07:23:18;;;;;;;5.55;1.67;;;;;;;5.84;100.00;101219.81;5294020;28;20046;-75
2023/11/25 07:25:50;;;;;;;5.75;1.25;;;;;;;5.82;100.00;101221.66;5292629;28;20042;-75
2023/11/25 07:28:22;;;;;;;4.78;1.08;;;;;;;5.71;100.00;101204.09;5293497;28;20038;-75
2023/11/25 07:30:54;;;;;;;6.50;1.25;;;;;;;5.78;100.00;101208.00;5295151;28;20035;-75
2023/11/25 07:33:26;;;;;;;5.63;1.70;;;;;;;5.76;100.00;101214.25;5292636;28;20396;-75
2023/11/25 07:35:58;;;;;;;4.35;1.25;;;;;;;5.69;100.00;101203.34;5275293;28;20047;-75
2023/11/25 07:38:29;;;;;;;5.53;1.00;;;;;;;5.67;100.00;101212.16;5295288;28;20028;-75
2023/11/25 07:41:01;;;;;;;8.65;1.38;;;;;;;5.65;100.00;101214.03;5293774;28;20032;-75
2023/11/25 07:43:33;;;;;;;9.27;2.47;;;;;;;5.69;100.00;101218.94;5295357;28;20385;-75
2023/11/25 07:46:07;;;;;;;5.03;1.48;;;;;;;5.70;100.00;101224.97;5276807;28;20156;-75
2023/11/25 07:48:39;;;;;;;7.47;1.83;;;;;;;5.75;100.00;101220.34;5292672;28;20039;-75
2023/11/25 07:51:12;;;;;;;8.40;1.60;;;;;;;5.80;100.00;101231.31;5295593;28;20489;-75
2023/11/25 07:53:44;;;;;;;10.07;1.70;;;;;;;5.75;100.00;101228.97;5292593;28;20397;-75
2023/11/25 07:56:16;;;;;;;7.95;1.67;;;;;;;5.84;100.00;101243.22;5295642;28;20099;-75
2023/11/25 07:58:48;;;;;;;13.68;1.95;;;;;;;5.91;100.00;101246.28;5294663;28;20107;-75
2023/11/25 08:01:20;;;;;;;6.93;2.05;;;;;;;5.89;100.00;101235.97;5294529;28;20032;-75
2023/11/25 08:03:52;;;;;;;8.50;1.73;;;;;;;5.91;100.00;101228.94;5295473;28;20024;-75
2023/11/25 08:06:25;;;;;;;6.38;1.85;;;;;;;5.88;100.00;101217.88;5292715;28;20031;-75
2023/11/25 08:08:57;;;;;;;6.45;2.15;;;;;;;5.92;100.00;101201.16;5291218;28;20036;-75
2023/11/25 08:11:32;;;;;;;7.40;1.73;;;;;;;5.98;100.00;101201.63;5293702;28;20031;-74
2023/11/25 08:14:04;;;;;;;8.43;1.95;;;;;;;6.00;100.00;101192.00;5291554;28;20035;-75
2023/11/25 08:16:36;;;;;;;6.38;2.03;;;;;;;6.05;100.00;101197.75;5293737;28;20035;-75
2023/11/25 08:19:07;;;;;;;9.90;2.42;;;;;;;6.09;100.00;101198.41;5293133;28;20358;-75
2023/11/25 08:21:39;;;;;;;8.95;1.73;;;;;;;6.18;100.00;101204.84;5293488;28;20149;-75
2023/11/25 08:24:11;;;;;;;5.93;1.25;;;;;;;6.23;100.00;101205.38;5294826;28;20025;-75
2023/11/25 08:26:44;;;;;;;8.48;1.85;;;;;;;6.25;100.00;101203.50;5294604;28;20021;-75
2023/11/25 08:29:17;;;;;;;6.57;1.58;;;;;;;6.29;100.00;101202.41;5276295;28;20036;-75
2023/11/25 08:31:49;;;;;;;5.30;1.17;;;;;;;6.32;100.00;101207.41;5290128;28;20032;-75
2023/11/25 08:34:20;;;;;;;6.95;1.42;;;;;;;6.33;100.00;101219.50;5293884;28;20032;-76
2023/11/25 08:36:52;;;;;;;5.03;1.35;;;;;;;6.32;100.00;101217.81;5298323;28;20030;-75
2023/11/25 08:39:28;;;;;;;5.82;1.30;;;;;;;6.31;100.00;101216.97;5296397;28;20131;-75
2023/11/25 08:41:59;;;;;;;6.40;1.65;;;;;;;6.32;100.00;101210.00;5278963;28;20490;-75
2023/11/25 08:44:32;;;;;;;4.75;1.08;;;;;;;6.35;100.00;101207.22;5295216;28;20027;-75
2023/11/25 08:47:04;;;;;;;7.40;1.63;;;;;;;6.43;100.00;101210.19;5275530;28;20036;-74
2023/11/25 08:49:36;;;;;;;6.30;1.30;;;;;;;6.48;100.00;101223.78;5293122;28;20476;-75
2023/11/25 08:52:08;;;;;;;7.15;1.85;;;;;;;6.54;100.00;101210.38;5291933;28;20029;-76
2023/11/25 08:54:40;;;;;;;4.78;1.10;;;;;;;6.57;100.00;101210.19;5273144;28;20067;-75
2023/11/25 08:57:12;;;;;;;5.30;2.05;;;;;;;6.65;100.00;101211.47;5291600;28;20534;-75
2023/11/25 08:59:44;;;;;;;6.28;1.67;;;;;;;6.71;100.00;101213.69;5295949;28;20034;-75
2023/11/25 09:02:21;;;;;;;5.53;1.30;;;;;;;6.74;100.00;101210.88;5294508;28;20046;-75
2023/11/25 09:04:53;;;;;;;4.97;1.73;;;;;;;6.82;100.00;101213.88;5277989;28;20393;-75
2023/11/25 09:07:25;;;;;;;8.07;2.00;;;;;;;6.86;100.00;101210.13;5294235;28;20040;-75
2023/11/25 09:09:59;;;;;;;7.43;1.80;;;;;;;6.92;100.00;101222.75;5293610;28;20032;-75
2023/11/25 09:12:31;;;;;;;5.53;2.25;;;;;;;6.91;100.00;101217.66;5296295;28;20024;-75
2023/11/25 09:15:06;;;;;;;6.78;2.00;;;;;;;6.95;100.00;101211.31;5294847;28;20414;-75
2023/11/25 09:17:39;;;;;;;5.82;1.45;;;;;;;6.96;100.00;101213.81;5294947;28;20029;-75
2023/11/25 09:20:16;;;;;;;5.57;1.95;;;;;;;6.97;100.00;101219.84;5295689;28;20039;-75
2023/11/25 09:22:48;;;;;;;5.07;1.58;;;;;;;6.90;100.00;101209.00;5296262;28;20043;-75
2023/11/25 09:25:20;;;;;;;5.13;1.73;;;;;;;6.92;100.00;101203.69;5296642;28;20055;-75
2023/11/25 09:27:52;;;;;;;8.18;2.05;;;;;;;6.97;100.00;101212.03;5293101;28;20032;-75
2023/11/25 09:30:24;;;;;;;3.95;1.30;;;;;;;7.04;100.00;101201.13;5291612;28;20591;-75
2023/11/25 09:32:56;;;;;;;5.15;1.70;;;;;;;7.14;100.00;101203.16;5295032;28;20026;-75
2023/11/25 09:35:28;;;;;;;3.63;1.30;;;;;;;7.27;100.00;101206.63;5294097;28;20101;-75
2023/11/25 09:38:00;;;;;;;12.38;2.05;;;;;;;7.42;100.00;101221.25;5294466;28;20380;-76
2023/11/25 09:40:32;;;;;;;7.95;1.88;;;;;;;7.52;100.00;101224.94;5291966;28;20036;-75
2023/11/25 09:43:03;;;;;;;6.05;1.20;;;;;;;7.64;100.00;101228.50;5292464;28;20020;-75
2023/11/25 09:45:35;;;;;;;4.45;1.10;;;;;;;7.63;100.00;101228.63;5295047;28;20028;-75
2023/11/25 09:48:07;;;;;;;5.28;1.30;;;;;;;7.67;100.00;101225.69;5290521;28;20091;-75
2023/11/25 09:50:39;;;;;;;4.82;1.60;;;;;;;7.70;100.00;101237.69;5273678;28;20071;-75
2023/11/25 09:53:22;;;;;;;6.03;1.98;;;;;;;7.90;100.00;101249.41;5294238;28;20066;-76
2023/11/25 09:56:07;;;;;;;6.82;1.52;;;;;;;7.75;100.00;101248.66;5295062;28;20032;-75
2023/11/25 09:58:39;;;;;;;5.05;1.42;;;;;;;7.62;100.00;101253.03;5292369;28;20042;-76
2023/11/25 10:01:12;;;;;;;6.30;1.00;;;;;;;7.55;100.00;101244.75;5295821;28;20054;-75
2023/11/25 10:03:47;;;;;;;4.43;1.60;;;;;;;7.49;100.00;101235.56;5292421;28;20039;-75
2023/11/25 10:06:19;;;;;;;6.88;1.52;;;;;;;7.42;100.00;101220.41;5293515;28;20039;-75
2023/11/25 10:08:51;;;;;;;3.63;1.15;;;;;;;7.43;100.00;101215.13;5291364;28;20114;-75
2023/11/25 10:11:23;;;;;;;4.93;1.50;;;;;;;7.48;100.00;101213.03;5292402;28;20024;-75
2023/11/25 10:13:56;;;;;;;7.60;1.98;;;;;;;7.47;100.00;101216.59;5293808;28;20420;-75
2023/11/25 10:16:29;;;;;;;7.10;2.25;;;;;;;7.58;100.00;101221.09;5290874;28;20044;-75
2023/11/25 10:19:02;;;;;;;;;;;;;;;8.12;100.00;101222.72;5293606;28;20029;-75
2023/11/25 10:21:35;;;;;;;8.07;3.00;;;;;;;7.59;100.00;101220.16;5294877;28;20297;-75
2023/11/25 10:24:08;;;;;;;;;;;;;;;8.19;100.00;101216.97;5276834;28;20036;-75
2023/11/25 10:26:40;;;;;;;3.92;1.08;;;;;;;7.77;100.00;101208.50;5293335;28;19919;-75
2023/11/25 10:29:17;;;;;;;4.38;1.00;;;;;;;7.91;100.00;101206.72;5294918;28;20055;-75
2023/11/25 10:31:58;;;;;;;5.75;1.58;;;;;;;8.00;100.00;101198.28;5292769;28;20052;-75
2023/11/25 10:34:30;;;;;;;5.22;1.45;;;;;;;7.91;100.00;101194.50;5296318;28;20024;-76
2023/11/25 10:37:04;;;;;;;6.25;1.48;;;;;;;7.94;100.00;101194.31;5293411;28;20035;-75
2023/11/25 10:39:36;;;;;;;2.90;1.30;;;;;;;7.99;100.00;101188.75;5297439;28;20481;-75
2023/11/25 10:42:09;;;;;;;4.15;1.23;;;;;;;8.11;100.00;101187.13;5296841;28;20037;-75
2023/11/25 10:44:41;;;;;;;3.72;1.15;;;;;;;8.21;100.00;101212.44;5295184;28;20031;-75
2023/11/25 10:47:33;;;;;;;4.80;1.20;;;;;;;8.42;100.00;101207.56;5295371;28;20113;-76
2023/11/25 10:50:06;;;;;;;4.60;0.95;;;;;;;8.11;100.00;101203.59;5296862;28;20041;-75
2023/11/25 10:52:44;;;;;;;9.38;1.23;;;;;;;8.16;100.00;101191.06;5294250;28;20047;-75
2023/11/25 10:55:18;;;;;;;5.03;1.33;;;;;;;8.04;100.00;101191.91;5297477;28;20036;-75
2023/11/25 10:57:50;;;;;;;5.53;1.35;;;;;;;7.89;100.00;101177.31;5295469;28;20036;-76
2023/11/25 11:00:22;;;;;;;6.70;1.10;;;;;;;8.00;100.00;101193.06;5295283;28;20039;-75
2023/11/25 11:02:57;;;;;;;6.65;1.65;;;;;;;7.92;100.00;101192.75;5295280;28;20297;-75
2023/11/25 11:05:40;;;;;;;5.57;1.40;;;;;;;8.06;100.00;101184.81;5294698;28;20036;-75
2023/11/25 11:08:17;;;;;;;6.05;1.63;;;;;;;8.19;100.00;101190.03;5296711;28;20405;-77
2023/11/25 11:11:00;;;;;;;5.30;1.08;;;;;;;8.20;100.00;101191.69;5296467;28;20366;-76
2023/11/25 11:13:36;;;;;;;4.47;1.35;;;;;;;8.45;100.00;101183.03;5296233;28;20024;-77
2023/11/25 11:16:21;;;;;;;10.48;2.22;;;;;;;8.66;100.00;101175.44;5295283;28;20481;-77
2023/11/25 11:18:56;;;;;;;7.95;1.63;;;;;;;8.65;100.00;101168.53;5293985;28;20039;-77
2023/11/25 11:21:34;;;;;;;7.88;1.80;;;;;;;8.81;100.00;101170.88;5296134;28;20032;-77
2023/11/25 11:24:08;;;;;;;5.07;1.50;;;;;;;8.87;100.00;101165.22;5293424;28;20039;-77
2023/11/25 11:27:13;;;;;;;12.27;1.88;;;;;;;9.09;100.00;101167.09;5294435;28;20386;-77
2023/11/25 11:29:57;;;;;;;5.68;1.45;;;;;;;8.88;100.00;101167.72;5287361;28;20043;-77
2023/11/25 11:32:34;;;;;;;8.65;1.58;;;;;;;9.01;100.00;101165.88;5294557;28;20031;-77
2023/11/25 11:35:08;;;;;;;5.05;1.50;;;;;;;8.78;100.00;101174.53;5291145;28;20051;-77
2023/11/25 11:37:47;;;;;;;6.90;1.83;;;;;;;8.93;100.00;101176.03;5289325;28;20026;-77
2023/11/25 11:40:22;;;;;;;9.57;2.17;;;;;;;8.72;100.00;101181.06;5293333;28;20051;-77
2023/11/25 11:42:55;;;;;;;6.00;1.63;;;;;;;8.59;100.00;101197.69;5294214;28;20035;-77
2023/11/25 11:45:27;;;;;;;;;;;;;;;9.12;100.00;101199.06;5294101;28;20465;-77
2023/11/25 11:48:02;;;;;;;5.90;1.17;;;;;;;8.46;100.00;101189.91;5294018;28;20023;-76
2023/11/25 11:50:35;;;;;;;5.65;1.38;;;;;;;8.34;100.00;101194.19;5295096;28;20028;-76